sensor_id;sensor_type;location;lat;lon;timestamp;temperature;humidity
20650;DHT22;10484;48.736;9.332;2023-12-20T00:01:47;3.90;99.90
20650;DHT22;10484;48.736;9.332;2023-12-20T00:04:12;3.90;99.90
20650;DHT22;10484;48.736;9.332;2023-12-20T00:06:38;3.90;99.90
20650;DHT22;10484;48.736;9.332;2023-12-20T00:09:03;3.90;99.90
20650;DHT22;10484;48.736;9.332;2023-12-20T00:11:29;4.00;99.90
20650;DHT22;10484;48.736;9.332;2023-12-20T00:13:54;4.00;99.90
20650;DHT22;10484;48.736;9.332;2023-12-20T00:16:20;4.00;99.90
20650;DHT22;10484;48.736;9.332;2023-12-20T00:18:45;4.00;99.90
20650;DHT22;10484;48.736;9.332;2023-12-20T00:21:11;4.00;99.90
20650;DHT22;10484;48.736;9.332;2023-12-20T00:23:37;4.00;99.90
20650;DHT22;10484;48.736;9.332;2023-12-20T00:26:02;4.00;99.90
20650;DHT22;10484;48.736;9.332;2023-12-20T00:28:28;4.00;99.90
20650;DHT22;10484;48.736;9.332;2023-12-20T00:30:53;4.00;99.90
20650;DHT22;10484;48.736;9.332;2023-12-20T00:33:19;4.00;99.90
20650;DHT22;10484;48.736;9.332;2023-12-20T00:35:44;4.10;99.90
20650;DHT22;10484;48.736;9.332;2023-12-20T00:38:10;4.10;99.90
20650;DHT22;10484;48.736;9.332;2023-12-20T00:40:37;4.20;99.90
20650;DHT22;10484;48.736;9.332;2023-12-20T00:43:02;4.20;99.90
20650;DHT22;10484;48.736;9.332;2023-12-20T00:45:28;4.20;99.90
20650;DHT22;10484;48.736;9.332;2023-12-20T00:47:54;4.30;99.90
20650;DHT22;10484;48.736;9.332;2023-12-20T00:50:19;4.30;99.90
20650;DHT22;10484;48.736;9.332;2023-12-20T00:52:47;4.40;99.90
20650;DHT22;10484;48.736;9.332;2023-12-20T00:55:13;4.40;99.90
20650;DHT22;10484;48.736;9.332;2023-12-20T00:57:38;4.40;99.90
20650;DHT22;10484;48.736;9.332;2023-12-20T01:00:04;4.40;99.90
20650;DHT22;10484;48.736;9.332;2023-12-20T01:02:30;4.40;99.90
20650;DHT22;10484;48.736;9.332;2023-12-20T01:04:56;4.40;99.90
20650;DHT22;10484;48.736;9.332;2023-12-20T01:07:21;4.40;99.90
20650;DHT22;10484;48.736;9.332;2023-12-20T01:09:47;4.40;99.90
20650;DHT22;10484;48.736;9.332;2023-12-20T01:12:12;4.40;99.90
20650;DHT22;10484;48.736;9.332;2023-12-20T01:14:38;4.30;99.90
20650;DHT22;10484;48.736;9.332;2023-12-20T01:17:04;4.30;99.90
20650;DHT22;10484;48.736;9.332;2023-12-20T01:19:30;4.30;99.90
20650;DHT22;10484;48.736;9.332;2023-12-20T01:21:56;4.30;99.90
20650;DHT22;10484;48.736;9.332;2023-12-20T01:24:21;4.30;99.90
20650;DHT22;10484;48.736;9.332;2023-12-20T01:26:47;4.30;99.90
20650;DHT22;10484;48.736;9.332;2023-12-20T01:29:12;4.30;99.90
20650;DHT22;10484;48.736;9.332;2023-12-20T01:31:39;4.30;99.90
20650;DHT22;10484;48.736;9.332;2023-12-20T01:34:06;4.30;99.90
20650;DHT22;10484;48.736;9.332;2023-12-20T01:36:31;4.30;99.90
20650;DHT22;10484;48.736;9.332;2023-12-20T01:38:57;4.30;99.90
20650;DHT22;10484;48.736;9.332;2023-12-20T01:41:22;4.30;99.90
20650;DHT22;10484;48.736;9.332;2023-12-20T01:43:48;4.30;99.90
20650;DHT22;10484;48.736;9.332;2023-12-20T01:46:14;4.30;99.90
20650;DHT22;10484;48.736;9.332;2023-12-20T01:48:41;4.30;99.90
20650;DHT22;10484;48.736;9.332;2023-12-20T01:51:07;4.30;99.90
20650;DHT22;10484;48.736;9.332;2023-12-20T01:53:33;4.30;99.90
20650;DHT22;10484;48.736;9.332;2023-12-20T01:55:59;4.30;99.90
20650;DHT22;10484;48.736;9.332;2023-12-20T01:58:25;4.40;99.90
20650;DHT22;10484;48.736;9.332;2023-12-20T02:00:51;4.40;99.90
20650;DHT22;10484;48.736;9.332;2023-12-20T02:03:18;4.40;99.90
20650;DHT22;10484;48.736;9.332;2023-12-20T02:05:44;4.40;99.90
20650;DHT22;10484;48.736;9.332;2023-12-20T02:08:11;4.40;99.90
20650;DHT22;10484;48.736;9.332;2023-12-20T02:10:36;4.40;99.90
20650;DHT22;10484;48.736;9.332;2023-12-20T02:13:03;4.40;99.90
20650;DHT22;10484;48.736;9.332;2023-12-20T02:15:29;4.40;99.90
20650;DHT22;10484;48.736;9.332;2023-12-20T02:17:55;4.40;99.90
20650;DHT22;10484;48.736;9.332;2023-12-20T02:20:21;4.40;99.90
20650;DHT22;10484;48.736;9.332;2023-12-20T02:22:46;4.40;99.90
20650;DHT22;10484;48.736;9.332;2023-12-20T02:25:12;4.50;99.90
20650;DHT22;10484;48.736;9.332;2023-12-20T02:27:38;4.50;99.90
20650;DHT22;10484;48.736;9.332;2023-12-20T02:30:05;4.50;99.90
20650;DHT22;10484;48.736;9.332;2023-12-20T02:32:31;4.50;99.90
20650;DHT22;10484;48.736;9.332;2023-12-20T02:34:57;4.50;99.90
20650;DHT22;10484;48.736;9.332;2023-12-20T02:37:23;4.50;99.90
20650;DHT22;10484;48.736;9.332;2023-12-20T02:39:48;4.50;99.90
20650;DHT22;10484;48.736;9.332;2023-12-20T02:42:14;4.50;99.90
20650;DHT22;10484;48.736;9.332;2023-12-20T02:44:39;4.50;99.90
20650;DHT22;10484;48.736;9.332;2023-12-20T02:47:05;4.50;99.90
20650;DHT22;10484;48.736;9.332;2023-12-20T02:49:31;4.50;99.90
20650;DHT22;10484;48.736;9.332;2023-12-20T02:51:56;4.50;99.90
20650;DHT22;10484;48.736;9.332;2023-12-20T02:54:22;4.50;99.90
20650;DHT22;10484;48.736;9.332;2023-12-20T02:56:48;4.50;99.90
20650;DHT22;10484;48.736;9.332;2023-12-20T02:59:13;4.50;99.90
20650;DHT22;10484;48.736;9.332;2023-12-20T03:01:43;4.50;99.90
20650;DHT22;10484;48.736;9.332;2023-12-20T03:04:09;4.50;99.90
20650;DHT22;10484;48.736;9.332;2023-12-20T03:06:35;4.50;99.90
20650;DHT22;10484;48.736;9.332;2023-12-20T03:09:01;4.50;99.90
20650;DHT22;10484;48.736;9.332;2023-12-20T03:11:27;4.50;99.90
20650;DHT22;10484;48.736;9.332;2023-12-20T03:13:53;4.50;99.90
20650;DHT22;10484;48.736;9.332;2023-12-20T03:16:18;4.50;99.90
20650;DHT22;10484;48.736;9.332;2023-12-20T03:18:44;4.50;99.90
20650;DHT22;10484;48.736;9.332;2023-12-20T03:21:09;4.50;99.90
20650;DHT22;10484;48.736;9.332;2023-12-20T03:23:35;4.50;99.90
20650;DHT22;10484;48.736;9.332;2023-12-20T03:26:00;4.50;99.90
20650;DHT22;10484;48.736;9.332;2023-12-20T03:28:27;4.50;99.90
20650;DHT22;10484;48.736;9.332;2023-12-20T03:30:53;4.50;99.90
20650;DHT22;10484;48.736;9.332;2023-12-20T03:33:18;4.50;99.90
20650;DHT22;10484;48.736;9.332;2023-12-20T03:35:44;4.50;99.90
20650;DHT22;10484;48.736;9.332;2023-12-20T03:38:09;4.50;99.90
20650;DHT22;10484;48.736;9.332;2023-12-20T03:40:35;4.50;99.90
20650;DHT22;10484;48.736;9.332;2023-12-20T03:43:01;4.50;99.90
20650;DHT22;10484;48.736;9.332;2023-12-20T03:45:26;4.50;99.90
20650;DHT22;10484;48.736;9.332;2023-12-20T03:47:52;4.50;99.90
20650;DHT22;10484;48.736;9.332;2023-12-20T03:50:24;4.50;99.90
20650;DHT22;10484;48.736;9.332;2023-12-20T03:52:49;4.60;99.90
20650;DHT22;10484;48.736;9.332;2023-12-20T03:55:15;4.60;99.90
20650;DHT22;10484;48.736;9.332;2023-12-20T03:57:41;4.60;99.90
20650;DHT22;10484;48.736;9.332;2023-12-20T04:00:09;4.60;99.90
20650;DHT22;10484;48.736;9.332;2023-12-20T04:02:39;4.60;99.90
20650;DHT22;10484;48.736;9.332;2023-12-20T04:05:06;4.60;99.90
20650;DHT22;10484;48.736;9.332;2023-12-20T04:07:32;4.60;99.90
20650;DHT22;10484;48.736;9.332;2023-12-20T04:09:58;4.60;99.90
20650;DHT22;10484;48.736;9.332;2023-12-20T04:12:24;4.60;99.90
20650;DHT22;10484;48.736;9.332;2023-12-20T04:14:49;4.60;99.90
20650;DHT22;10484;48.736;9.332;2023-12-20T04:17:15;4.60;99.90
20650;DHT22;10484;48.736;9.332;2023-12-20T04:19:41;4.60;99.90
20650;DHT22;10484;48.736;9.332;2023-12-20T04:22:07;4.60;99.90
20650;DHT22;10484;48.736;9.332;2023-12-20T04:24:33;4.60;99.90
20650;DHT22;10484;48.736;9.332;2023-12-20T04:26:58;4.60;99.90
20650;DHT22;10484;48.736;9.332;2023-12-20T04:29:24;4.60;99.90
20650;DHT22;10484;48.736;9.332;2023-12-20T04:31:49;4.60;99.90
20650;DHT22;10484;48.736;9.332;2023-12-20T04:34:17;4.60;99.90
20650;DHT22;10484;48.736;9.332;2023-12-20T04:36:42;4.60;99.90
20650;DHT22;10484;48.736;9.332;2023-12-20T04:39:08;4.60;99.90
20650;DHT22;10484;48.736;9.332;2023-12-20T04:41:34;4.60;99.90
20650;DHT22;10484;48.736;9.332;2023-12-20T04:43:59;4.60;99.90
20650;DHT22;10484;48.736;9.332;2023-12-20T04:46:26;4.60;99.90
20650;DHT22;10484;48.736;9.332;2023-12-20T04:48:51;4.60;99.90
20650;DHT22;10484;48.736;9.332;2023-12-20T04:51:17;4.60;99.90
20650;DHT22;10484;48.736;9.332;2023-12-20T04:53:43;4.60;99.90
20650;DHT22;10484;48.736;9.332;2023-12-20T04:56:08;4.60;99.90
20650;DHT22;10484;48.736;9.332;2023-12-20T04:58:34;4.60;99.90
20650;DHT22;10484;48.736;9.332;2023-12-20T05:00:59;4.60;99.90
20650;DHT22;10484;48.736;9.332;2023-12-20T05:03:25;4.60;99.90
20650;DHT22;10484;48.736;9.332;2023-12-20T05:05:50;4.60;99.90
20650;DHT22;10484;48.736;9.332;2023-12-20T05:08:16;4.60;99.90
20650;DHT22;10484;48.736;9.332;2023-12-20T05:10:42;4.60;99.90
20650;DHT22;10484;48.736;9.332;2023-12-20T05:13:07;4.60;99.90
20650;DHT22;10484;48.736;9.332;2023-12-20T05:15:33;4.60;99.90
20650;DHT22;10484;48.736;9.332;2023-12-20T05:17:58;4.60;99.90
20650;DHT22;10484;48.736;9.332;2023-12-20T05:20:24;4.60;99.90
20650;DHT22;10484;48.736;9.332;2023-12-20T05:22:50;4.60;99.90
20650;DHT22;10484;48.736;9.332;2023-12-20T05:25:15;4.60;99.90
20650;DHT22;10484;48.736;9.332;2023-12-20T05:27:41;4.70;99.90
20650;DHT22;10484;48.736;9.332;2023-12-20T05:30:07;4.70;99.90
20650;DHT22;10484;48.736;9.332;2023-12-20T05:32:32;4.70;99.90
20650;DHT22;10484;48.736;9.332;2023-12-20T05:34:58;4.70;99.90
20650;DHT22;10484;48.736;9.332;2023-12-20T05:37:23;4.70;99.90
20650;DHT22;10484;48.736;9.332;2023-12-20T05:39:49;4.70;99.90
20650;DHT22;10484;48.736;9.332;2023-12-20T05:42:15;4.70;99.90
20650;DHT22;10484;48.736;9.332;2023-12-20T05:44:40;4.70;99.90
20650;DHT22;10484;48.736;9.332;2023-12-20T05:47:06;4.70;99.90
20650;DHT22;10484;48.736;9.332;2023-12-20T05:49:31;4.70;99.90
20650;DHT22;10484;48.736;9.332;2023-12-20T05:51:57;4.80;99.90
20650;DHT22;10484;48.736;9.332;2023-12-20T05:54:23;4.80;99.90
20650;DHT22;10484;48.736;9.332;2023-12-20T05:56:48;4.80;99.90
20650;DHT22;10484;48.736;9.332;2023-12-20T05:59:14;4.80;99.90
20650;DHT22;10484;48.736;9.332;2023-12-20T06:01:39;4.80;99.90
20650;DHT22;10484;48.736;9.332;2023-12-20T06:04:05;4.80;99.90
20650;DHT22;10484;48.736;9.332;2023-12-20T06:06:30;4.80;99.90
20650;DHT22;10484;48.736;9.332;2023-12-20T06:08:56;4.90;99.90
20650;DHT22;10484;48.736;9.332;2023-12-20T06:11:23;4.90;99.90
20650;DHT22;10484;48.736;9.332;2023-12-20T06:13:49;4.90;99.90
20650;DHT22;10484;48.736;9.332;2023-12-20T06:16:18;4.90;99.90
20650;DHT22;10484;48.736;9.332;2023-12-20T06:18:43;4.90;99.90
20650;DHT22;10484;48.736;9.332;2023-12-20T06:21:09;4.90;99.90
20650;DHT22;10484;48.736;9.332;2023-12-20T06:23:38;4.90;99.90
20650;DHT22;10484;48.736;9.332;2023-12-20T06:26:04;4.90;99.90
20650;DHT22;10484;48.736;9.332;2023-12-20T06:28:29;4.90;99.90
20650;DHT22;10484;48.736;9.332;2023-12-20T06:30:55;4.90;99.90
20650;DHT22;10484;48.736;9.332;2023-12-20T06:33:22;4.90;99.90
20650;DHT22;10484;48.736;9.332;2023-12-20T06:35:48;4.90;99.90
20650;DHT22;10484;48.736;9.332;2023-12-20T06:38:14;4.90;99.90
20650;DHT22;10484;48.736;9.332;2023-12-20T06:40:39;4.90;99.90
20650;DHT22;10484;48.736;9.332;2023-12-20T06:43:05;4.90;99.90
20650;DHT22;10484;48.736;9.332;2023-12-20T06:45:32;4.90;99.90
20650;DHT22;10484;48.736;9.332;2023-12-20T06:47:57;4.90;99.90
20650;DHT22;10484;48.736;9.332;2023-12-20T06:50:23;4.90;99.90
20650;DHT22;10484;48.736;9.332;2023-12-20T06:52:49;4.90;99.90
20650;DHT22;10484;48.736;9.332;2023-12-20T06:55:15;4.90;99.90
20650;DHT22;10484;48.736;9.332;2023-12-20T06:57:40;4.90;99.90
20650;DHT22;10484;48.736;9.332;2023-12-20T07:00:07;4.80;99.90
20650;DHT22;10484;48.736;9.332;2023-12-20T07:02:33;4.80;99.90
20650;DHT22;10484;48.736;9.332;2023-12-20T07:04:59;4.80;99.90
20650;DHT22;10484;48.736;9.332;2023-12-20T07:07:25;4.90;99.90
20650;DHT22;10484;48.736;9.332;2023-12-20T07:09:51;4.90;99.90
20650;DHT22;10484;48.736;9.332;2023-12-20T07:12:17;4.90;99.90
20650;DHT22;10484;48.736;9.332;2023-12-20T07:14:45;4.90;99.90
20650;DHT22;10484;48.736;9.332;2023-12-20T07:17:10;4.90;99.90
20650;DHT22;10484;48.736;9.332;2023-12-20T07:19:39;4.90;99.90
20650;DHT22;10484;48.736;9.332;2023-12-20T07:22:06;4.90;99.90
20650;DHT22;10484;48.736;9.332;2023-12-20T07:24:32;5.00;99.90
20650;DHT22;10484;48.736;9.332;2023-12-20T07:26:59;4.90;99.90
20650;DHT22;10484;48.736;9.332;2023-12-20T07:29:24;4.90;99.90
20650;DHT22;10484;48.736;9.332;2023-12-20T07:31:50;5.00;99.90
20650;DHT22;10484;48.736;9.332;2023-12-20T07:34:17;5.00;99.90
20650;DHT22;10484;48.736;9.332;2023-12-20T07:36:43;5.00;99.90
20650;DHT22;10484;48.736;9.332;2023-12-20T07:39:08;5.00;99.90
20650;DHT22;10484;48.736;9.332;2023-12-20T07:41:34;5.00;99.90
20650;DHT22;10484;48.736;9.332;2023-12-20T07:43:59;5.00;99.90
20650;DHT22;10484;48.736;9.332;2023-12-20T07:46:25;5.00;99.90
20650;DHT22;10484;48.736;9.332;2023-12-20T07:48:50;5.00;99.90
20650;DHT22;10484;48.736;9.332;2023-12-20T07:51:16;5.00;99.90
20650;DHT22;10484;48.736;9.332;2023-12-20T07:53:42;5.00;99.90
20650;DHT22;10484;48.736;9.332;2023-12-20T07:56:18;5.00;99.90
20650;DHT22;10484;48.736;9.332;2023-12-20T07:58:44;5.10;99.90
20650;DHT22;10484;48.736;9.332;2023-12-20T08:01:11;5.00;99.90
20650;DHT22;10484;48.736;9.332;2023-12-20T08:03:36;5.10;99.90
20650;DHT22;10484;48.736;9.332;2023-12-20T08:06:02;5.10;99.90
20650;DHT22;10484;48.736;9.332;2023-12-20T08:08:28;5.00;99.90
20650;DHT22;10484;48.736;9.332;2023-12-20T08:10:54;5.10;99.90
20650;DHT22;10484;48.736;9.332;2023-12-20T08:13:19;5.10;99.90
20650;DHT22;10484;48.736;9.332;2023-12-20T08:15:45;5.10;99.90
20650;DHT22;10484;48.736;9.332;2023-12-20T08:18:11;5.10;99.90
20650;DHT22;10484;48.736;9.332;2023-12-20T08:20:36;5.10;99.90
20650;DHT22;10484;48.736;9.332;2023-12-20T08:23:02;5.10;99.90
20650;DHT22;10484;48.736;9.332;2023-12-20T08:25:28;5.10;99.90
20650;DHT22;10484;48.736;9.332;2023-12-20T08:27:53;5.10;99.90
20650;DHT22;10484;48.736;9.332;2023-12-20T08:30:19;5.10;99.90
20650;DHT22;10484;48.736;9.332;2023-12-20T08:32:48;5.10;99.90
20650;DHT22;10484;48.736;9.332;2023-12-20T08:35:13;5.10;99.90
20650;DHT22;10484;48.736;9.332;2023-12-20T08:37:39;5.10;99.90
20650;DHT22;10484;48.736;9.332;2023-12-20T08:40:05;5.10;99.90
20650;DHT22;10484;48.736;9.332;2023-12-20T08:42:31;5.10;99.90
20650;DHT22;10484;48.736;9.332;2023-12-20T08:44:57;5.10;99.90
20650;DHT22;10484;48.736;9.332;2023-12-20T08:47:26;5.10;99.90
20650;DHT22;10484;48.736;9.332;2023-12-20T08:49:52;5.10;99.90
20650;DHT22;10484;48.736;9.332;2023-12-20T08:52:24;5.20;99.90
20650;DHT22;10484;48.736;9.332;2023-12-20T08:54:52;5.10;99.90
20650;DHT22;10484;48.736;9.332;2023-12-20T08:57:20;5.10;99.90
20650;DHT22;10484;48.736;9.332;2023-12-20T08:59:47;5.10;99.90
20650;DHT22;10484;48.736;9.332;2023-12-20T09:02:13;5.10;99.90
20650;DHT22;10484;48.736;9.332;2023-12-20T09:04:39;5.10;99.90
20650;DHT22;10484;48.736;9.332;2023-12-20T09:07:04;5.10;99.90
20650;DHT22;10484;48.736;9.332;2023-12-20T09:09:30;5.10;99.90
20650;DHT22;10484;48.736;9.332;2023-12-20T09:11:58;5.10;99.90
20650;DHT22;10484;48.736;9.332;2023-12-20T09:14:23;5.10;99.90
20650;DHT22;10484;48.736;9.332;2023-12-20T09:16:49;5.10;99.90
20650;DHT22;10484;48.736;9.332;2023-12-20T09:19:17;5.10;99.90
20650;DHT22;10484;48.736;9.332;2023-12-20T09:21:42;5.10;99.90
20650;DHT22;10484;48.736;9.332;2023-12-20T09:24:08;5.00;99.90
20650;DHT22;10484;48.736;9.332;2023-12-20T09:26:34;5.00;99.90
20650;DHT22;10484;48.736;9.332;2023-12-20T09:29:00;5.00;99.90
20650;DHT22;10484;48.736;9.332;2023-12-20T09:31:25;5.10;99.90
20650;DHT22;10484;48.736;9.332;2023-12-20T09:33:51;5.00;99.90
20650;DHT22;10484;48.736;9.332;2023-12-20T09:36:16;5.00;99.90
20650;DHT22;10484;48.736;9.332;2023-12-20T09:38:42;5.00;99.90
20650;DHT22;10484;48.736;9.332;2023-12-20T09:41:08;5.00;99.90
20650;DHT22;10484;48.736;9.332;2023-12-20T09:43:37;5.00;99.90
20650;DHT22;10484;48.736;9.332;2023-12-20T09:46:05;5.00;99.90
20650;DHT22;10484;48.736;9.332;2023-12-20T09:48:31;5.00;99.90
20650;DHT22;10484;48.736;9.332;2023-12-20T09:50:58;5.10;99.90
20650;DHT22;10484;48.736;9.332;2023-12-20T09:53:25;5.20;99.90
20650;DHT22;10484;48.736;9.332;2023-12-20T09:55:58;5.20;99.90
20650;DHT22;10484;48.736;9.332;2023-12-20T09:58:27;5.30;99.90
20650;DHT22;10484;48.736;9.332;2023-12-20T10:00:53;5.30;99.90
20650;DHT22;10484;48.736;9.332;2023-12-20T10:03:23;5.40;99.90
20650;DHT22;10484;48.736;9.332;2023-12-20T10:05:52;5.50;99.90
20650;DHT22;10484;48.736;9.332;2023-12-20T10:08:21;5.50;99.90
20650;DHT22;10484;48.736;9.332;2023-12-20T10:10:47;5.60;99.90
20650;DHT22;10484;48.736;9.332;2023-12-20T10:13:13;5.60;99.90
20650;DHT22;10484;48.736;9.332;2023-12-20T10:15:39;5.70;99.90
20650;DHT22;10484;48.736;9.332;2023-12-20T10:18:05;5.70;99.90
20650;DHT22;10484;48.736;9.332;2023-12-20T10:20:31;5.70;99.90
20650;DHT22;10484;48.736;9.332;2023-12-20T10:22:58;5.70;99.90
20650;DHT22;10484;48.736;9.332;2023-12-20T10:25:24;5.80;99.90
20650;DHT22;10484;48.736;9.332;2023-12-20T10:28:08;5.80;99.90
20650;DHT22;10484;48.736;9.332;2023-12-20T10:30:33;5.80;94.50
20650;DHT22;10484;48.736;9.332;2023-12-20T10:32:59;5.90;93.80
20650;DHT22;10484;48.736;9.332;2023-12-20T10:35:25;5.90;89.80
20650;DHT22;10484;48.736;9.332;2023-12-20T10:37:55;5.90;86.30
20650;DHT22;10484;48.736;9.332;2023-12-20T10:40:21;5.90;84.90
20650;DHT22;10484;48.736;9.332;2023-12-20T10:42:47;6.00;76.00
20650;DHT22;10484;48.736;9.332;2023-12-20T10:45:13;6.00;68.40
20650;DHT22;10484;48.736;9.332;2023-12-20T10:47:39;6.00;60.30
20650;DHT22;10484;48.736;9.332;2023-12-20T10:50:06;6.10;58.50
20650;DHT22;10484;48.736;9.332;2023-12-20T10:52:34;6.00;59.80
20650;DHT22;10484;48.736;9.332;2023-12-20T10:55:01;6.00;58.90
20650;DHT22;10484;48.736;9.332;2023-12-20T10:57:27;6.00;59.90
20650;DHT22;10484;48.736;9.332;2023-12-20T10:59:54;6.00;57.80
20650;DHT22;10484;48.736;9.332;2023-12-20T11:02:20;6.00;56.50
20650;DHT22;10484;48.736;9.332;2023-12-20T11:09:59;6.00;51.50
20650;DHT22;10484;48.736;9.332;2023-12-20T11:12:37;6.00;51.80
20650;DHT22;10484;48.736;9.332;2023-12-20T11:15:06;6.00;52.10
20650;DHT22;10484;48.736;9.332;2023-12-20T11:17:32;6.00;49.10
20650;DHT22;10484;48.736;9.332;2023-12-20T11:22:26;6.00;49.10
20650;DHT22;10484;48.736;9.332;2023-12-20T11:24:58;6.00;49.70
20650;DHT22;10484;48.736;9.332;2023-12-20T11:27:24;6.00;50.40
20650;DHT22;10484;48.736;9.332;2023-12-20T11:29:54;6.00;50.40
20650;DHT22;10484;48.736;9.332;2023-12-20T11:35:00;6.00;48.00
20650;DHT22;10484;48.736;9.332;2023-12-20T11:37:31;6.00;45.60
20650;DHT22;10484;48.736;9.332;2023-12-20T11:40:05;6.00;43.50
20650;DHT22;10484;48.736;9.332;2023-12-20T11:42:43;6.00;42.20
20650;DHT22;10484;48.736;9.332;2023-12-20T11:45:10;6.00;41.50
20650;DHT22;10484;48.736;9.332;2023-12-20T11:47:36;6.00;42.00
20650;DHT22;10484;48.736;9.332;2023-12-20T11:50:02;6.00;40.90
20650;DHT22;10484;48.736;9.332;2023-12-20T11:52:29;6.00;39.30
20650;DHT22;10484;48.736;9.332;2023-12-20T11:54:56;6.00;37.40
20650;DHT22;10484;48.736;9.332;2023-12-20T11:57:22;6.00;37.80
20650;DHT22;10484;48.736;9.332;2023-12-20T11:59:47;6.00;38.90
20650;DHT22;10484;48.736;9.332;2023-12-20T12:02:13;6.00;39.60
20650;DHT22;10484;48.736;9.332;2023-12-20T12:04:41;6.00;36.50
20650;DHT22;10484;48.736;9.332;2023-12-20T12:07:07;6.00;34.30
20650;DHT22;10484;48.736;9.332;2023-12-20T12:09:32;6.00;34.10
20650;DHT22;10484;48.736;9.332;2023-12-20T12:11:58;6.00;34.10
20650;DHT22;10484;48.736;9.332;2023-12-20T12:14:24;6.00;34.00
20650;DHT22;10484;48.736;9.332;2023-12-20T12:16:50;6.00;34.00
20650;DHT22;10484;48.736;9.332;2023-12-20T12:19:22;6.00;34.40
20650;DHT22;10484;48.736;9.332;2023-12-20T12:21:47;6.00;34.00
20650;DHT22;10484;48.736;9.332;2023-12-20T12:24:13;6.00;34.30
20650;DHT22;10484;48.736;9.332;2023-12-20T12:26:38;6.00;34.00
20650;DHT22;10484;48.736;9.332;2023-12-20T12:29:07;6.00;34.30
20650;DHT22;10484;48.736;9.332;2023-12-20T12:31:33;6.00;34.30
20650;DHT22;10484;48.736;9.332;2023-12-20T12:33:58;6.00;34.20
20650;DHT22;10484;48.736;9.332;2023-12-20T12:36:24;6.00;34.20
20650;DHT22;10484;48.736;9.332;2023-12-20T12:38:49;6.00;34.00
20650;DHT22;10484;48.736;9.332;2023-12-20T12:41:15;6.00;34.00
20650;DHT22;10484;48.736;9.332;2023-12-20T12:43:41;6.00;34.00
20650;DHT22;10484;48.736;9.332;2023-12-20T12:46:07;6.00;34.10
20650;DHT22;10484;48.736;9.332;2023-12-20T12:48:33;6.00;33.90
20650;DHT22;10484;48.736;9.332;2023-12-20T12:50:59;6.00;34.10
20650;DHT22;10484;48.736;9.332;2023-12-20T12:53:25;6.00;34.00
20650;DHT22;10484;48.736;9.332;2023-12-20T12:55:52;6.00;34.00
20650;DHT22;10484;48.736;9.332;2023-12-20T12:58:19;6.00;34.00
20650;DHT22;10484;48.736;9.332;2023-12-20T13:00:45;6.00;33.90
20650;DHT22;10484;48.736;9.332;2023-12-20T13:03:10;6.00;33.90
20650;DHT22;10484;48.736;9.332;2023-12-20T13:05:36;6.10;34.20
20650;DHT22;10484;48.736;9.332;2023-12-20T13:08:01;6.10;34.10
20650;DHT22;10484;48.736;9.332;2023-12-20T13:10:27;6.10;34.10
20650;DHT22;10484;48.736;9.332;2023-12-20T13:12:53;6.10;34.00
20650;DHT22;10484;48.736;9.332;2023-12-20T13:15:19;6.10;34.00
20650;DHT22;10484;48.736;9.332;2023-12-20T13:17:44;6.10;33.90
20650;DHT22;10484;48.736;9.332;2023-12-20T13:20:11;6.10;33.90
20650;DHT22;10484;48.736;9.332;2023-12-20T13:22:37;6.10;33.80
20650;DHT22;10484;48.736;9.332;2023-12-20T13:25:03;6.20;38.10
20650;DHT22;10484;48.736;9.332;2023-12-20T13:27:28;6.20;33.90
20650;DHT22;10484;48.736;9.332;2023-12-20T13:29:54;6.20;33.90
20650;DHT22;10484;48.736;9.332;2023-12-20T13:32:19;6.20;33.80
20650;DHT22;10484;48.736;9.332;2023-12-20T13:34:45;6.20;33.80
20650;DHT22;10484;48.736;9.332;2023-12-20T13:37:11;6.20;33.80
20650;DHT22;10484;48.736;9.332;2023-12-20T13:39:36;6.20;33.60
20650;DHT22;10484;48.736;9.332;2023-12-20T13:42:03;6.20;33.40
20650;DHT22;10484;48.736;9.332;2023-12-20T13:44:28;6.20;33.20
20650;DHT22;10484;48.736;9.332;2023-12-20T13:46:54;6.20;32.80
20650;DHT22;10484;48.736;9.332;2023-12-20T13:49:20;6.20;32.30
20650;DHT22;10484;48.736;9.332;2023-12-20T13:51:46;6.20;31.50
20650;DHT22;10484;48.736;9.332;2023-12-20T13:54:12;6.30;31.10
20650;DHT22;10484;48.736;9.332;2023-12-20T13:56:38;6.30;30.90
20650;DHT22;10484;48.736;9.332;2023-12-20T13:59:04;6.30;30.90
20650;DHT22;10484;48.736;9.332;2023-12-20T14:01:29;6.30;30.40
20650;DHT22;10484;48.736;9.332;2023-12-20T14:03:55;6.30;30.00
20650;DHT22;10484;48.736;9.332;2023-12-20T14:06:20;6.30;29.20
20650;DHT22;10484;48.736;9.332;2023-12-20T14:08:46;6.30;29.30
20650;DHT22;10484;48.736;9.332;2023-12-20T14:11:11;6.30;28.20
20650;DHT22;10484;48.736;9.332;2023-12-20T14:13:38;6.30;26.60
20650;DHT22;10484;48.736;9.332;2023-12-20T14:16:04;6.30;26.70
20650;DHT22;10484;48.736;9.332;2023-12-20T14:18:30;6.30;25.80
20650;DHT22;10484;48.736;9.332;2023-12-20T14:20:55;6.30;26.00
20650;DHT22;10484;48.736;9.332;2023-12-20T14:23:21;6.30;26.80
20650;DHT22;10484;48.736;9.332;2023-12-20T14:25:47;6.30;26.40
20650;DHT22;10484;48.736;9.332;2023-12-20T14:28:14;6.30;25.40
20650;DHT22;10484;48.736;9.332;2023-12-20T14:30:40;6.30;24.80
20650;DHT22;10484;48.736;9.332;2023-12-20T14:33:06;6.30;24.30
20650;DHT22;10484;48.736;9.332;2023-12-20T14:35:32;6.30;24.00
20650;DHT22;10484;48.736;9.332;2023-12-20T14:37:58;6.30;23.70
20650;DHT22;10484;48.736;9.332;2023-12-20T14:40:23;6.30;23.60
20650;DHT22;10484;48.736;9.332;2023-12-20T14:42:49;6.20;23.30
20650;DHT22;10484;48.736;9.332;2023-12-20T14:45:15;6.20;23.40
20650;DHT22;10484;48.736;9.332;2023-12-20T14:47:44;6.30;23.00
20650;DHT22;10484;48.736;9.332;2023-12-20T14:50:09;6.30;23.00
20650;DHT22;10484;48.736;9.332;2023-12-20T14:52:37;6.20;22.80
20650;DHT22;10484;48.736;9.332;2023-12-20T14:55:03;6.30;23.30
20650;DHT22;10484;48.736;9.332;2023-12-20T14:57:29;6.20;23.80
20650;DHT22;10484;48.736;9.332;2023-12-20T14:59:56;6.30;24.50
20650;DHT22;10484;48.736;9.332;2023-12-20T15:02:21;6.20;24.40
20650;DHT22;10484;48.736;9.332;2023-12-20T15:04:47;6.20;24.30
20650;DHT22;10484;48.736;9.332;2023-12-20T15:07:12;6.20;24.30
20650;DHT22;10484;48.736;9.332;2023-12-20T15:09:38;6.20;24.10
20650;DHT22;10484;48.736;9.332;2023-12-20T15:12:04;6.20;27.00
20650;DHT22;10484;48.736;9.332;2023-12-20T15:14:30;6.10;24.40
20650;DHT22;10484;48.736;9.332;2023-12-20T15:16:56;6.10;24.90
20650;DHT22;10484;48.736;9.332;2023-12-20T15:19:22;6.10;25.40
20650;DHT22;10484;48.736;9.332;2023-12-20T15:21:48;6.10;25.00
20650;DHT22;10484;48.736;9.332;2023-12-20T15:24:14;6.10;25.20
20650;DHT22;10484;48.736;9.332;2023-12-20T15:26:42;6.10;25.50
20650;DHT22;10484;48.736;9.332;2023-12-20T15:29:08;6.10;25.50
20650;DHT22;10484;48.736;9.332;2023-12-20T15:31:35;6.00;26.20
20650;DHT22;10484;48.736;9.332;2023-12-20T15:34:02;6.00;27.30
20650;DHT22;10484;48.736;9.332;2023-12-20T15:36:27;6.00;28.30
20650;DHT22;10484;48.736;9.332;2023-12-20T15:38:53;6.10;28.10
20650;DHT22;10484;48.736;9.332;2023-12-20T15:41:19;6.00;28.80
20650;DHT22;10484;48.736;9.332;2023-12-20T15:43:45;6.00;29.20
20650;DHT22;10484;48.736;9.332;2023-12-20T15:46:10;6.00;28.70
20650;DHT22;10484;48.736;9.332;2023-12-20T15:48:36;6.00;29.20